createdAt,value
2023-04-28T00:00:39.249Z,8.27
2023-04-28T00:03:07.079Z,9.20
2023-04-28T00:05:34.902Z,8.13
2023-04-28T00:08:03.333Z,8.73
2023-04-28T00:10:32.129Z,7.73
2023-04-28T00:12:59.889Z,7.93
2023-04-28T00:15:27.688Z,9.07
2023-04-28T00:17:56.933Z,7.83
2023-04-28T00:20:24.671Z,8.00
2023-04-28T00:22:52.377Z,8.23
2023-04-28T00:25:20.109Z,8.40
2023-04-28T00:27:47.832Z,8.63
2023-04-28T00:30:15.844Z,8.50
2023-04-28T00:32:43.589Z,7.77
2023-04-28T00:35:12.710Z,7.80
2023-04-28T00:37:40.638Z,8.03
2023-04-28T00:40:09.493Z,8.60
2023-04-28T00:42:37.380Z,9.07
2023-04-28T00:45:06.573Z,9.00
2023-04-28T00:47:34.740Z,7.90
2023-04-28T00:50:02.972Z,8.63
2023-04-28T00:52:32.568Z,8.30
2023-04-28T00:55:00.612Z,7.77
2023-04-28T00:57:28.328Z,8.10
2023-04-28T00:59:56.022Z,8.73
2023-04-28T01:02:24.576Z,7.90
2023-04-28T01:04:54.343Z,8.57
2023-04-28T01:07:22.381Z,9.10
2023-04-28T01:09:51.468Z,7.90
2023-04-28T01:12:19.185Z,9.17
2023-04-28T01:14:47.412Z,8.83
2023-04-28T01:17:15.601Z,8.83
2023-04-28T01:19:43.360Z,8.93
2023-04-28T01:22:14.129Z,8.27
2023-04-28T01:24:43.271Z,8.10
2023-04-28T01:27:11.387Z,8.37
2023-04-28T01:29:39.097Z,7.60
2023-04-28T01:32:06.901Z,8.70
2023-04-28T01:34:34.649Z,9.30
2023-04-28T01:37:02.400Z,9.07
2023-04-28T01:39:30.145Z,8.07
2023-04-28T01:41:59.262Z,8.33
2023-04-28T01:44:27.204Z,9.10
2023-04-28T01:46:54.991Z,9.57
2023-04-28T01:49:22.857Z,8.50
2023-04-28T01:51:50.719Z,9.77
2023-04-28T01:54:18.704Z,8.80
2023-04-28T01:56:46.664Z,8.43
2023-04-28T01:59:16.191Z,8.60
2023-04-28T02:01:43.998Z,9.83
2023-04-28T02:04:11.793Z,9.43
2023-04-28T02:06:39.589Z,10.00
2023-04-28T02:09:07.323Z,9.90
2023-04-28T02:11:35.063Z,9.53
2023-04-28T02:14:02.807Z,10.03
2023-04-28T02:16:33.240Z,9.23
2023-04-28T02:19:01.062Z,9.40
2023-04-28T02:21:28.931Z,10.00
2023-04-28T02:23:56.689Z,9.63
2023-04-28T02:26:24.435Z,9.97
2023-04-28T02:28:52.237Z,10.07
2023-04-28T02:31:20.181Z,9.47
2023-04-28T02:33:49.392Z,10.30
2023-04-28T02:36:17.130Z,9.23
2023-04-28T02:38:44.994Z,9.20
2023-04-28T02:41:13.149Z,9.97
2023-04-28T02:43:40.888Z,10.43
2023-04-28T02:46:09.043Z,10.20
2023-04-28T02:48:37.359Z,9.40
2023-04-28T02:51:06.727Z,9.60
2023-04-28T02:53:34.429Z,10.53
2023-04-28T02:56:04.429Z,9.37
2023-04-28T02:58:32.374Z,9.37
2023-04-28T03:01:00.196Z,9.87
2023-04-28T03:03:28.147Z,9.40
2023-04-28T03:05:56.926Z,9.20
2023-04-28T03:08:26.253Z,9.97
2023-04-28T03:10:54.005Z,10.40
2023-04-28T03:13:21.739Z,9.57
2023-04-28T03:15:49.440Z,10.43
2023-04-28T03:18:17.360Z,9.40
2023-04-28T03:20:45.127Z,9.37
2023-04-28T03:23:12.845Z,10.23
2023-04-28T03:25:41.889Z,9.90
2023-04-28T03:28:10.742Z,9.77
2023-04-28T03:30:38.470Z,9.87
2023-04-28T03:33:06.870Z,10.53
2023-04-28T03:35:34.716Z,9.90
2023-04-28T03:38:02.464Z,10.23
2023-04-28T03:40:30.196Z,9.63
2023-04-28T03:42:59.770Z,10.53
2023-04-28T03:45:27.544Z,10.37
2023-04-28T03:47:55.282Z,10.83
2023-04-28T03:50:24.764Z,9.67
2023-04-28T03:52:53.830Z,9.93
2023-04-28T03:55:21.723Z,11.43
2023-04-28T03:57:49.502Z,9.43
2023-04-28T04:00:19.052Z,9.73
2023-04-28T04:02:46.913Z,10.20
2023-04-28T04:05:15.060Z,21.63
2023-04-28T04:07:42.881Z,11.07
2023-04-28T04:10:11.111Z,13.33
2023-04-28T04:12:38.799Z,11.37
2023-04-28T04:15:07.797Z,10.07
2023-04-28T04:17:36.965Z,9.70
2023-04-28T04:20:05.062Z,10.60
2023-04-28T04:22:32.782Z,10.23
2023-04-28T04:25:00.552Z,10.17
2023-04-28T04:27:28.381Z,10.33
2023-04-28T04:29:56.156Z,10.73
2023-04-28T04:32:24.017Z,8.83
2023-04-28T04:34:53.136Z,9.47
2023-04-28T04:37:20.954Z,9.43
2023-04-28T04:39:48.690Z,10.47
2023-04-28T04:42:24.724Z,9.80
2023-04-28T04:44:53.457Z,9.53
2023-04-28T04:47:21.190Z,10.20
2023-04-28T04:49:49.867Z,8.80
2023-04-28T04:52:19.853Z,9.23
2023-04-28T04:54:47.596Z,9.67
2023-04-28T04:57:15.322Z,9.17
2023-04-28T04:59:43.062Z,8.47
2023-04-28T05:02:11.023Z,7.73
2023-04-28T05:04:38.948Z,8.57
2023-04-28T05:07:06.818Z,8.07
2023-04-28T05:09:36.017Z,8.10
2023-04-28T05:12:03.802Z,8.33
2023-04-28T05:14:31.658Z,9.17
2023-04-28T05:16:59.585Z,8.30
2023-04-28T05:19:27.481Z,8.70
2023-04-28T05:21:55.248Z,8.13
2023-04-28T05:24:23.968Z,7.07
2023-04-28T05:26:54.112Z,7.93
2023-04-28T05:29:22.024Z,7.93
2023-04-28T05:31:49.880Z,7.03
2023-04-28T05:34:18.054Z,6.50
2023-04-28T05:36:46.248Z,6.60
2023-04-28T05:39:14.040Z,6.53
2023-04-28T05:41:41.831Z,6.17
2023-04-28T05:44:11.193Z,6.17
2023-04-28T05:46:39.100Z,6.00
2023-04-28T05:49:06.978Z,6.20
2023-04-28T05:51:34.780Z,6.03
2023-04-28T05:54:02.564Z,5.93
2023-04-28T05:56:30.523Z,6.27
2023-04-28T05:58:58.636Z,5.73
2023-04-28T06:01:27.824Z,6.07
2023-04-28T06:03:58.102Z,5.80
2023-04-28T06:06:26.533Z,5.97
2023-04-28T06:08:54.550Z,5.60
2023-04-28T06:11:22.917Z,6.27
2023-04-28T06:13:51.321Z,5.50
2023-04-28T06:16:19.418Z,5.80
2023-04-28T06:18:49.800Z,5.70
2023-04-28T06:21:18.041Z,5.83
2023-04-28T06:23:46.037Z,5.90
2023-04-28T06:26:14.768Z,5.60
2023-04-28T06:28:43.935Z,4.93
2023-04-28T06:31:11.658Z,5.10
2023-04-28T06:33:39.430Z,5.13
2023-04-28T06:36:09.271Z,4.80
2023-04-28T06:38:37.508Z,5.60
2023-04-28T06:41:05.367Z,4.60
2023-04-28T06:43:33.441Z,4.60
2023-04-28T06:46:01.401Z,4.53
2023-04-28T06:48:29.213Z,4.70
2023-04-28T06:50:56.983Z,4.83
2023-04-28T06:53:26.047Z,4.33
2023-04-28T06:55:53.862Z,4.40
2023-04-28T06:58:21.930Z,3.80
2023-04-28T07:00:49.791Z,4.17
2023-04-28T07:03:17.692Z,3.90
2023-04-28T07:05:45.502Z,3.60
2023-04-28T07:08:13.423Z,3.77
2023-04-28T07:10:43.035Z,3.63
2023-04-28T07:13:11.159Z,3.07
2023-04-28T07:15:39.238Z,3.30
2023-04-28T07:18:07.506Z,2.70
2023-04-28T07:20:35.435Z,2.70
2023-04-28T07:23:03.175Z,3.13
2023-04-28T07:25:30.970Z,2.60
2023-04-28T07:28:00.187Z,3.13
2023-04-28T07:30:28.480Z,4.10
2023-04-28T07:32:56.563Z,3.53
2023-04-28T07:35:24.496Z,2.80
2023-04-28T07:37:52.428Z,3.17
2023-04-28T07:40:20.914Z,3.13
2023-04-28T07:42:48.991Z,2.33
2023-04-28T07:45:18.159Z,2.00
2023-04-28T07:47:45.964Z,1.93
2023-04-28T07:50:13.797Z,2.10
2023-04-28T07:52:41.498Z,1.77
2023-04-28T07:55:09.789Z,1.90
2023-04-28T07:57:37.946Z,1.87
2023-04-28T08:00:07.039Z,1.80
2023-04-28T08:02:36.315Z,2.03
2023-04-28T08:05:04.498Z,1.67
2023-04-28T08:07:32.367Z,1.77
2023-04-28T08:10:01.127Z,2.00
2023-04-28T08:12:28.854Z,2.13
2023-04-28T08:14:56.667Z,2.10
2023-04-28T08:17:24.725Z,2.20
2023-04-28T08:19:53.859Z,2.03
2023-04-28T08:22:21.586Z,2.23
2023-04-28T08:24:49.272Z,2.00
2023-04-28T08:27:17.075Z,2.13
2023-04-28T08:29:44.809Z,1.77
2023-04-28T08:32:12.595Z,1.63
2023-04-28T08:34:40.275Z,1.83
2023-04-28T08:37:09.424Z,2.27
2023-04-28T08:39:37.324Z,1.90
2023-04-28T08:42:05.754Z,1.73
2023-04-28T08:44:38.594Z,2.20
2023-04-28T08:47:13.498Z,2.00
2023-04-28T08:49:41.936Z,2.03
2023-04-28T08:52:13.998Z,1.73
2023-04-28T08:54:42.103Z,2.27
2023-04-28T08:57:10.933Z,2.03
2023-04-28T08:59:41.082Z,1.67
2023-04-28T09:02:09.626Z,1.70
2023-04-28T09:04:37.740Z,2.13
2023-04-28T09:07:13.708Z,1.80
2023-04-28T09:09:42.011Z,1.97
2023-04-28T09:12:09.775Z,2.37
2023-04-28T09:14:38.981Z,2.33
2023-04-28T09:17:12.197Z,2.17
2023-04-28T09:19:42.908Z,2.17
2023-04-28T09:22:25.684Z,2.20
2023-04-28T09:24:56.205Z,2.10
2023-04-28T09:27:28.972Z,2.20
2023-04-28T09:29:56.865Z,2.30
2023-04-28T09:32:25.960Z,2.40
2023-04-28T09:34:56.811Z,2.40
2023-04-28T09:37:27.174Z,2.30
2023-04-28T09:39:56.512Z,2.30
2023-04-28T09:42:34.898Z,2.10
2023-04-28T09:45:03.472Z,2.30
2023-04-28T09:47:33.345Z,2.30
2023-04-28T09:50:03.004Z,1.83
2023-04-28T09:52:30.828Z,2.77
2023-04-28T09:55:01.831Z,2.13
2023-04-28T09:57:32.352Z,1.90
2023-04-28T10:00:00.964Z,2.13
2023-04-28T10:05:00.401Z,2.17
2023-04-28T10:07:30.753Z,1.90
2023-04-28T10:10:00.132Z,1.80
2023-04-28T10:12:28.543Z,1.80
2023-04-28T10:14:57.187Z,1.70
2023-04-28T10:17:27.368Z,2.10
2023-04-28T10:19:55.774Z,2.07
2023-04-28T10:22:38.135Z,1.77
2023-04-28T10:25:28.634Z,1.97
2023-04-28T10:27:58.668Z,1.97
2023-04-28T10:30:29.844Z,1.63
2023-04-28T10:33:29.678Z,1.73
2023-04-28T10:35:57.871Z,1.73
2023-04-28T10:38:25.639Z,1.83
2023-04-28T10:40:55.423Z,1.90
2023-04-28T10:43:39.347Z,1.67
2023-04-28T10:46:08.661Z,1.40
2023-04-28T10:49:06.902Z,1.53
2023-04-28T10:51:35.365Z,1.70
2023-04-28T10:54:23.761Z,1.77
2023-04-28T10:57:23.490Z,1.63
2023-04-28T10:59:52.316Z,1.60
2023-04-28T11:02:43.815Z,1.70
2023-04-28T11:05:14.476Z,1.80
2023-04-28T11:07:42.785Z,1.80
2023-04-28T11:10:10.535Z,1.90
2023-04-28T11:13:18.127Z,2.10
2023-04-28T11:16:04.196Z,1.70
2023-04-28T11:18:39.316Z,1.90
2023-04-28T11:21:07.491Z,1.70
2023-04-28T11:23:35.412Z,2.00
2023-04-28T11:26:03.549Z,2.23
2023-04-28T11:28:32.645Z,1.80
2023-04-28T11:31:12.502Z,1.70
2023-04-28T11:33:42.160Z,1.87
2023-04-28T11:36:23.674Z,1.70
2023-04-28T11:38:51.403Z,2.00
2023-04-28T11:41:19.326Z,1.90
2023-04-28T11:43:48.542Z,1.80
2023-04-28T11:46:20.666Z,2.20
2023-04-28T11:48:49.008Z,2.27
2023-04-28T11:51:33.814Z,1.80
2023-04-28T11:54:02.509Z,1.90
2023-04-28T11:56:30.723Z,1.80
2023-04-28T11:59:08.113Z,1.60
2023-04-28T12:01:44.939Z,1.60
2023-04-28T12:04:14.239Z,2.43
2023-04-28T12:06:42.572Z,1.60
2023-04-28T12:09:17.329Z,1.73
2023-04-28T12:11:58.436Z,2.10
2023-04-28T12:14:27.577Z,1.70
2023-04-28T12:16:55.477Z,1.90
2023-04-28T12:19:23.341Z,2.10
2023-04-28T12:22:02.025Z,2.00
2023-04-28T12:24:30.124Z,2.00
2023-04-28T12:27:16.944Z,1.77
2023-04-28T12:29:47.236Z,1.90
2023-04-28T12:32:15.636Z,1.70
2023-04-28T12:34:45.306Z,1.70
2023-04-28T12:37:13.757Z,2.07
2023-04-28T12:39:43.227Z,2.00
2023-04-28T12:42:11.785Z,1.80
2023-04-28T12:44:40.819Z,3.73
2023-04-28T12:47:11.859Z,4.53
2023-04-28T12:49:39.654Z,1.97
2023-04-28T12:52:07.890Z,2.17
2023-04-28T12:54:35.786Z,1.90
2023-04-28T12:57:04.110Z,2.00
2023-04-28T12:59:32.710Z,2.10
2023-04-28T13:02:00.629Z,1.80
2023-04-28T13:04:31.226Z,2.00
2023-04-28T13:06:59.601Z,2.03
2023-04-28T13:09:27.958Z,1.90
2023-04-28T13:11:55.651Z,2.00
2023-04-28T13:14:24.072Z,1.90
2023-04-28T13:16:53.205Z,2.03
2023-04-28T13:19:21.008Z,2.00
2023-04-28T13:21:50.193Z,2.13
2023-04-28T13:24:17.924Z,2.03
2023-04-28T13:26:45.765Z,2.17
2023-04-28T13:29:14.399Z,2.30
2023-04-28T13:31:42.336Z,2.37
2023-04-28T13:34:15.841Z,1.90
2023-04-28T13:36:43.862Z,2.10
2023-04-28T13:39:14.590Z,1.93
2023-04-28T13:41:42.784Z,4.37
2023-04-28T13:44:10.689Z,2.70
2023-04-28T13:46:38.485Z,2.20
2023-04-28T13:49:06.262Z,2.40
2023-04-28T13:51:34.013Z,2.30
2023-04-28T13:54:04.391Z,2.00
2023-04-28T13:56:33.812Z,2.10
2023-04-28T13:59:01.664Z,1.97
2023-04-28T14:01:29.548Z,1.93
2023-04-28T14:03:57.768Z,2.00
2023-04-28T14:06:26.095Z,2.37
2023-04-28T14:08:53.930Z,2.27
2023-04-28T14:11:22.619Z,2.10
2023-04-28T14:13:51.747Z,2.47
2023-04-28T14:16:19.705Z,4.27
2023-04-28T14:18:47.478Z,2.57
2023-04-28T14:21:15.211Z,2.20
2023-04-28T14:23:42.959Z,2.40
2023-04-28T14:26:10.689Z,2.30
2023-04-28T14:28:38.551Z,2.70
2023-04-28T14:31:08.732Z,2.40
2023-04-28T14:33:37.047Z,2.20
2023-04-28T14:36:05.367Z,2.63
2023-04-28T14:38:33.214Z,3.10
2023-04-28T14:41:02.325Z,2.10
2023-04-28T14:43:30.060Z,2.40
2023-04-28T14:45:58.566Z,2.40
2023-04-28T14:48:27.682Z,2.33
2023-04-28T14:50:55.406Z,2.50
2023-04-28T14:53:23.661Z,2.80
2023-04-28T14:55:51.645Z,2.80
2023-04-28T14:58:19.339Z,2.07
2023-04-28T15:00:47.558Z,2.53
2023-04-28T15:03:15.522Z,2.47
2023-04-28T15:05:47.264Z,2.60
2023-04-28T15:08:15.061Z,2.23
2023-04-28T15:10:42.882Z,2.70
2023-04-28T15:13:10.643Z,2.10
2023-04-28T15:15:38.451Z,2.30
2023-04-28T15:18:06.199Z,2.50
2023-04-28T15:20:34.366Z,2.40
2023-04-28T15:23:03.518Z,2.50
2023-04-28T15:25:31.313Z,2.47
2023-04-28T15:27:59.080Z,2.33
2023-04-28T15:30:26.892Z,2.33
2023-04-28T15:32:54.650Z,5.80
2023-04-28T15:35:22.667Z,5.63
2023-04-28T15:37:52.121Z,2.20
2023-04-28T15:40:21.786Z,2.50
2023-04-28T15:42:51.803Z,2.40
2023-04-28T15:45:20.580Z,2.50
2023-04-28T15:47:50.223Z,2.37
2023-04-28T15:50:23.010Z,2.50
2023-04-28T15:52:51.295Z,3.03
2023-04-28T15:55:22.316Z,2.30
2023-04-28T15:57:50.106Z,2.23
2023-04-28T16:00:17.999Z,2.47
2023-04-28T16:02:46.297Z,3.73
2023-04-28T16:05:14.470Z,2.30
2023-04-28T16:07:42.368Z,2.40
2023-04-28T16:10:11.903Z,2.60
2023-04-28T16:12:42.104Z,2.33
2023-04-28T16:15:12.657Z,3.30
2023-04-28T16:17:41.144Z,2.30
2023-04-28T16:20:10.950Z,2.93
2023-04-28T16:22:40.029Z,3.57
2023-04-28T16:25:09.262Z,3.23
2023-04-28T16:27:37.698Z,2.40
2023-04-28T16:30:08.235Z,2.43
2023-04-28T16:32:36.567Z,2.57
2023-04-28T16:35:06.267Z,2.40
2023-04-28T16:37:36.347Z,2.90
2023-04-28T16:40:04.619Z,2.60
2023-04-28T16:42:32.335Z,2.10
2023-04-28T16:45:00.073Z,2.30
2023-04-28T16:47:31.104Z,2.30
2023-04-28T16:49:58.959Z,2.10
2023-04-28T16:52:27.561Z,2.37
2023-04-28T16:54:56.013Z,2.60
2023-04-28T16:57:23.771Z,2.60
2023-04-28T16:59:52.212Z,2.60
2023-04-28T17:02:20.180Z,4.73
2023-04-28T17:04:49.319Z,3.77
2023-04-28T17:07:17.472Z,2.57
2023-04-28T17:09:45.530Z,2.60
2023-04-28T17:12:13.317Z,2.90
2023-04-28T17:14:41.559Z,2.90
2023-04-28T17:17:09.272Z,2.60
2023-04-28T17:19:37.537Z,3.00
2023-04-28T17:22:06.637Z,2.70
2023-04-28T17:24:34.485Z,2.50
2023-04-28T17:27:02.282Z,3.10
2023-04-28T17:29:29.998Z,2.90
2023-04-28T17:31:57.763Z,2.43
2023-04-28T17:34:25.484Z,2.97
2023-04-28T17:36:53.195Z,2.53
2023-04-28T17:39:22.357Z,2.90
2023-04-28T17:41:50.058Z,2.83
2023-04-28T17:44:17.769Z,2.83
2023-04-28T17:46:45.617Z,2.80
2023-04-28T17:49:13.356Z,3.63
2023-04-28T17:51:41.093Z,2.60
2023-04-28T17:54:09.662Z,2.87
2023-04-28T17:56:39.403Z,2.20
2023-04-28T17:59:08.834Z,2.53
2023-04-28T18:01:36.848Z,3.03
2023-04-28T18:04:04.754Z,2.60
2023-04-28T18:06:32.460Z,2.73
2023-04-28T18:09:00.186Z,2.90
2023-04-28T18:11:28.145Z,2.40
2023-04-28T18:13:58.712Z,2.40
2023-04-28T18:16:26.966Z,2.70
2023-04-28T18:18:54.723Z,2.53
2023-04-28T18:21:22.477Z,2.83
2023-04-28T18:23:50.205Z,2.80
2023-04-28T18:26:17.913Z,2.60
2023-04-28T18:28:48.048Z,2.70
2023-04-28T18:31:17.273Z,2.50
2023-04-28T18:33:45.147Z,2.27
2023-04-28T18:36:13.018Z,2.63
2023-04-28T18:38:41.271Z,2.30
2023-04-28T18:41:16.168Z,2.23
2023-04-28T18:43:44.493Z,2.53
2023-04-28T18:46:12.262Z,2.63
2023-04-28T18:48:42.118Z,2.73
2023-04-28T18:51:10.073Z,2.13
2023-04-28T18:53:38.325Z,2.70
2023-04-28T18:56:06.255Z,2.70
2023-04-28T18:58:34.049Z,2.57
2023-04-28T19:01:01.819Z,2.40
2023-04-28T19:03:30.371Z,2.63
2023-04-28T19:05:59.498Z,2.90
2023-04-28T19:08:27.304Z,2.73
2023-04-28T19:10:55.025Z,2.77
2023-04-28T19:13:22.815Z,2.97
2023-04-28T19:15:53.554Z,2.90
2023-04-28T19:18:22.479Z,2.93
2023-04-28T19:20:52.197Z,3.20
2023-04-28T19:23:21.636Z,2.60
2023-04-28T19:25:49.468Z,3.00
2023-04-28T19:28:17.283Z,2.97
2023-04-28T19:30:45.053Z,3.70
2023-04-28T19:33:12.820Z,3.10
2023-04-28T19:35:41.670Z,3.50
2023-04-28T19:38:09.542Z,3.83
2023-04-28T19:40:39.757Z,3.90
2023-04-28T19:43:07.527Z,3.60
2023-04-28T19:45:36.040Z,3.60
2023-04-28T19:48:04.043Z,3.40
2023-04-28T19:50:32.297Z,3.57
2023-04-28T19:53:00.061Z,3.33
2023-04-28T19:55:27.919Z,3.63
2023-04-28T19:57:57.500Z,3.30
2023-04-28T20:00:25.597Z,3.70
2023-04-28T20:02:53.462Z,3.40
2023-04-28T20:05:21.769Z,3.20
2023-04-28T20:07:49.862Z,3.30
2023-04-28T20:10:19.204Z,3.20
2023-04-28T20:12:46.991Z,3.40
2023-04-28T20:15:16.783Z,3.60
2023-04-28T20:17:44.695Z,3.77
2023-04-28T20:20:12.858Z,3.83
2023-04-28T20:22:41.399Z,3.27
2023-04-28T20:25:10.758Z,3.70
2023-04-28T20:27:38.665Z,4.37
2023-04-28T20:30:07.944Z,3.70
2023-04-28T20:32:38.338Z,3.90
2023-04-28T20:35:07.258Z,3.33
2023-04-28T20:37:35.203Z,3.73
2023-04-28T20:40:03.143Z,3.30
2023-04-28T20:42:30.880Z,3.70
2023-04-28T20:44:58.718Z,4.10
2023-04-28T20:47:26.528Z,4.20
2023-04-28T20:49:55.713Z,3.93
2023-04-28T20:52:23.472Z,3.97
2023-04-28T20:54:52.134Z,3.90
2023-04-28T20:57:19.860Z,3.60
2023-04-28T20:59:47.602Z,4.47
2023-04-28T21:02:15.504Z,3.70
2023-04-28T21:04:43.307Z,3.80
2023-04-28T21:07:12.417Z,3.97
2023-04-28T21:09:42.099Z,5.93
2023-04-28T21:12:09.905Z,5.33
2023-04-28T21:14:37.657Z,4.13
2023-04-28T21:17:05.535Z,4.20
2023-04-28T21:19:33.535Z,4.00
2023-04-28T21:22:02.176Z,3.70
2023-04-28T21:24:31.282Z,3.70
2023-04-28T21:26:59.563Z,4.00
2023-04-28T21:29:27.600Z,3.57
2023-04-28T21:31:55.831Z,3.80
2023-04-28T21:34:23.568Z,4.23
2023-04-28T21:36:51.344Z,4.13
2023-04-28T21:39:19.114Z,4.30
2023-04-28T21:41:48.315Z,3.87
2023-04-28T21:44:16.441Z,3.60
2023-04-28T21:46:44.198Z,3.73
2023-04-28T21:49:11.961Z,4.03
2023-04-28T21:51:42.195Z,4.63
2023-04-28T21:54:09.945Z,4.23
2023-04-28T21:56:37.657Z,4.40
2023-04-28T21:59:06.914Z,4.97
2023-04-28T22:01:35.645Z,4.83
2023-04-28T22:04:03.842Z,4.83
2023-04-28T22:06:32.470Z,5.30
2023-04-28T22:09:01.366Z,5.30
2023-04-28T22:11:29.507Z,4.57
2023-04-28T22:13:57.239Z,4.63
2023-04-28T22:16:26.484Z,5.07
2023-04-28T22:18:54.412Z,4.63
2023-04-28T22:21:22.159Z,5.00
2023-04-28T22:23:49.911Z,4.83
2023-04-28T22:26:19.159Z,4.47
2023-04-28T22:28:46.875Z,4.53
2023-04-28T22:31:14.687Z,4.33
2023-04-28T22:33:43.811Z,4.07
2023-04-28T22:36:12.025Z,5.10
2023-04-28T22:38:39.771Z,4.57
2023-04-28T22:41:07.530Z,4.40
2023-04-28T22:43:35.245Z,4.57
2023-04-28T22:46:03.039Z,5.33
2023-04-28T22:48:30.815Z,5.50
2023-04-28T22:50:59.903Z,4.47
2023-04-28T22:53:27.635Z,4.90
2023-04-28T22:55:56.738Z,4.97
2023-04-28T22:58:24.518Z,5.47
2023-04-28T23:00:52.244Z,5.10
2023-04-28T23:03:21.300Z,5.37
2023-04-28T23:05:49.151Z,4.57
2023-04-28T23:08:18.241Z,4.70
2023-04-28T23:10:46.387Z,5.33
2023-04-28T23:13:14.120Z,4.83
2023-04-28T23:15:41.860Z,5.47
2023-04-28T23:18:09.681Z,5.17
2023-04-28T23:20:37.372Z,5.13
2023-04-28T23:23:05.328Z,5.37
2023-04-28T23:25:34.432Z,5.37
2023-04-28T23:28:02.161Z,5.23
2023-04-28T23:30:29.880Z,5.30
2023-04-28T23:32:57.687Z,5.30
2023-04-28T23:35:25.580Z,5.20
2023-04-28T23:37:53.372Z,4.93
2023-04-28T23:40:21.161Z,5.73
2023-04-28T23:42:50.278Z,4.60
2023-04-28T23:45:18.091Z,5.33
2023-04-28T23:47:45.851Z,5.10
2023-04-28T23:50:13.578Z,5.10
2023-04-28T23:52:41.318Z,5.10
2023-04-28T23:55:10.422Z,5.77
2023-04-28T23:57:38.868Z,5.30
